Time;durP1;ratioP1;P1;durP2;ratioP2;P2;SDS_P1;SDS_P2;PMS_P1;PMS_P2;Temp;Humidity;BMP_temperature;BMP_pressure;BME280_temperature;BME280_humidity;BME280_pressure;Samples;Min_cycle;Max_cycle;Signal;HPM_P1;HPM_P2
2023/07/08 00:02:19;;;;;;;12.93;8.05;;;18.80;1.00;;;;;;6188296;23;20060;-90
2023/07/08 00:05:45;;;;;;;12.07;7.57;;;18.70;1.00;;;;;;6187342;23;20087;-90
2023/07/08 00:08:39;;;;;;;14.82;8.77;;;18.50;1.00;;;;;;6187636;23;20068;-90
2023/07/08 00:11:31;;;;;;;12.18;7.80;;;18.40;1.00;;;;;;6184560;23;20438;-90
2023/07/08 00:14:21;;;;;;;14.38;7.75;;;18.20;1.00;;;;;;6186750;23;20045;-90
2023/07/08 00:17:14;;;;;;;11.13;7.68;;;18.20;1.00;;;;;;6164672;23;20044;-91
2023/07/08 00:20:39;;;;;;;14.65;8.77;;;18.10;1.00;;;;;;6187549;23;20087;-88
2023/07/08 00:23:57;;;;;;;14.38;8.13;;;18.00;1.00;;;;;;6166569;23;20368;-89
2023/07/08 00:27:03;;;;;;;13.63;8.10;;;17.90;1.00;;;;;;6168976;23;20032;-89
2023/07/08 00:30:28;;;;;;;13.70;7.63;;;17.80;1.00;;;;;;6168141;23;20031;-91
2023/07/08 00:33:35;;;;;;;13.25;7.78;;;17.60;1.00;;;;;;6185483;23;20025;-89
2023/07/08 00:36:38;;;;;;;12.45;7.80;;;17.60;1.00;;;;;;6187847;23;20032;-90
2023/07/08 00:39:28;;;;;;;15.35;8.15;;;17.60;1.00;;;;;;6169707;23;20025;-89
2023/07/08 00:42:24;;;;;;;16.50;7.97;;;17.50;1.00;;;;;;6198949;23;20381;-89
2023/07/08 00:45:29;;;;;;;11.35;7.40;;;17.50;1.00;;;;;;6199277;23;20368;-89
2023/07/08 00:48:40;;;;;;;14.10;7.88;;;17.40;1.00;;;;;;6177268;23;20021;-90
2023/07/08 00:51:30;;;;;;;14.63;8.02;;;17.30;1.00;;;;;;6168853;23;20029;-89
2023/07/08 00:54:20;;;;;;;12.48;7.63;;;17.30;1.00;;;;;;6169827;23;20295;-90
2023/07/08 00:57:40;;;;;;;;;;;;;;;;;;;;;
2023/07/08 01:00:53;;;;;;;15.10;7.78;;;17.20;1.00;;;;;;6189576;23;20514;-91
2023/07/08 01:04:03;;;;;;;13.65;8.20;;;17.20;1.00;;;;;;6166989;23;20025;-90
2023/07/08 01:07:07;;;;;;;12.95;7.32;;;17.20;1.00;;;;;;6166483;23;20160;-91
2023/07/08 01:10:12;;;;;;;12.60;8.23;;;17.10;1.00;;;;;;6168750;23;20329;-90
2023/07/08 01:13:19;;;;;;;11.02;7.70;;;17.10;1.00;;;;;;6171727;23;20048;-90
2023/07/08 01:16:18;;;;;;;12.52;7.35;;;17.00;1.00;;;;;;6149932;23;20032;-91
2023/07/08 01:19:31;;;;;;;17.40;8.20;;;17.00;1.00;;;;;;6168042;23;20033;-89
2023/07/08 01:22:45;;;;;;;13.35;8.10;;;17.00;1.00;;;;;;6166974;23;20024;-90
2023/07/08 01:25:43;;;;;;;;;;;;;;;;;;;;;
2023/07/08 01:28:50;;;;;;;12.27;7.78;;;17.00;1.00;;;;;;6188167;23;20029;-90
2023/07/08 01:31:57;;;;;;;12.02;8.18;;;16.90;1.00;;;;;;6187169;23;20029;-91
2023/07/08 01:35:04;;;;;;;15.48;8.27;;;16.70;1.00;;;;;;6166629;23;20365;-90
2023/07/08 01:38:00;;;;;;;12.15;7.57;;;16.70;1.00;;;;;;6166878;23;20413;-90
2023/07/08 01:40:56;;;;;;;13.15;7.63;;;16.80;1.00;;;;;;6166317;23;20021;-92
2023/07/08 01:43:44;;;;;;;13.68;8.30;;;16.80;1.00;;;;;;6166584;23;20491;-91
2023/07/08 01:46:35;;;;;;;14.68;7.80;;;16.70;1.00;;;;;;6166568;23;20108;-90
2023/07/08 01:49:31;;;;;;;12.73;8.05;;;16.80;1.00;;;;;;6167958;23;20036;-91
2023/07/08 01:52:27;;;;;;;10.25;7.22;;;16.70;1.00;;;;;;6186697;23;20187;-90
2023/07/08 01:55:33;;;;;;;11.93;7.55;;;16.70;1.00;;;;;;6187695;23;20025;-91
2023/07/08 01:58:42;;;;;;;13.60;7.82;;;16.70;1.00;;;;;;6170815;23;20336;-91
2023/07/08 02:01:30;;;;;;;16.98;9.27;;;16.70;1.00;;;;;;6186458;23;20036;-89
2023/07/08 02:04:24;;;;;;;13.00;7.85;;;16.80;1.00;;;;;;6170239;23;20051;-90
2023/07/08 02:07:11;;;;;;;14.15;7.88;;;16.90;1.00;;;;;;6167565;23;20029;-90
2023/07/08 02:10:28;;;;;;;12.73;8.45;;;16.80;1.00;;;;;;6177978;23;20072;-92
2023/07/08 02:13:38;;;;;;;13.05;7.78;;;16.80;1.00;;;;;;6172505;23;20049;-90
2023/07/08 02:16:35;;;;;;;12.20;7.60;;;16.70;1.00;;;;;;6173532;23;20025;-90
2023/07/08 02:19:38;;;;;;;13.48;8.30;;;16.70;1.00;;;;;;6197085;23;20025;-90
2023/07/08 02:22:37;;;;;;;12.00;7.63;;;16.60;1.00;;;;;;6167403;23;20032;-90
2023/07/08 02:25:54;;;;;;;14.77;7.93;;;16.70;1.00;;;;;;6185912;23;20029;-91
2023/07/08 02:28:42;;;;;;;11.60;7.85;;;16.70;1.00;;;;;;6159839;23;20040;-90
2023/07/08 02:31:30;;;;;;;11.18;7.57;;;16.60;1.00;;;;;;6171334;23;20025;-90
2023/07/08 02:34:24;;;;;;;26.35;8.77;;;16.70;1.00;;;;;;6198998;23;20039;-90
2023/07/08 02:37:30;;;;;;;12.48;6.85;;;16.70;1.00;;;;;;6174478;23;20025;-91
2023/07/08 02:40:18;;;;;;;12.93;7.53;;;16.90;1.00;;;;;;6168478;23;20043;-90
2023/07/08 02:43:16;;;;;;;;;;;;;;;;;;;;;
2023/07/08 02:46:05;;;;;;;16.30;8.02;;;17.60;1.00;;;;;;6185410;23;20035;-90
2023/07/08 02:48:55;;;;;;;12.88;7.80;;;17.70;1.00;;;;;;6167383;23;20024;-91
2023/07/08 02:51:50;;;;;;;14.77;7.78;;;17.80;1.00;;;;;;6169575;23;20104;-92
2023/07/08 02:54:54;;;;;;;12.55;7.40;;;17.70;1.00;;;;;;6171561;23;20025;-89
2023/07/08 02:58:29;;;;;;;;;;;;;;;;;;;;;
2023/07/08 03:01:23;;;;;;;16.05;8.07;;;17.50;1.00;;;;;;6189538;23;20104;-91
2023/07/08 03:04:13;;;;;;;13.15;7.72;;;17.40;1.00;;;;;;6169410;23;20032;-91
2023/07/08 03:10:49;;;;;;;;;;;;;;;;;;;;;
2023/07/08 03:13:56;;;;;;;12.32;6.97;;;17.10;1.00;;;;;;6188011;23;20095;-90
2023/07/08 03:17:17;;;;;;;12.45;7.55;;;17.00;1.00;;;;;;6187891;23;20095;-92
2023/07/08 03:20:21;;;;;;;12.35;8.02;;;17.00;1.00;;;;;;6139177;23;20032;-91
2023/07/08 03:23:48;;;;;;;13.30;7.63;;;17.00;1.00;;;;;;6170571;23;20025;-90
2023/07/08 03:27:05;;;;;;;12.15;7.38;;;16.90;1.00;;;;;;6177166;23;20100;-92
2023/07/08 03:30:12;;;;;;;13.30;8.52;;;16.80;1.00;;;;;;6194037;23;20028;-90
2023/07/08 03:33:07;;;;;;;12.30;7.68;;;16.70;1.00;;;;;;6182250;23;20043;-90
2023/07/08 03:36:03;;;;;;;13.30;8.30;;;16.70;1.00;;;;;;6181262;23;20029;-90
2023/07/08 03:38:57;;;;;;;12.45;8.18;;;16.70;1.00;;;;;;6183054;23;20025;-89
2023/07/08 03:41:49;;;;;;;12.90;8.07;;;16.60;1.00;;;;;;6179984;23;20081;-91
2023/07/08 03:48:24;;;;;;;13.77;8.35;;;16.60;1.00;;;;;;6211408;23;20013;-88
2023/07/08 03:52:17;;;;;;;;;;;;;;;;;;;;;
2023/07/08 03:55:57;;;;;;;14.68;8.20;;;16.60;1.00;;;;;;6204274;23;20035;-91
2023/07/08 03:59:48;;;;;;;14.18;7.70;;;16.70;1.00;;;;;;6097379;23;20019;-90
2023/07/08 04:07:25;;;;;;;11.90;7.78;;;17.10;1.00;;;;;;6198621;23;20070;-90
2023/07/08 04:10:51;;;;;;;;;;;;;;;;;;;;;
2023/07/08 04:24:57;;;;;;;11.40;8.20;;;18.10;1.00;;;;;;6095284;23;20030;-88
2023/07/08 04:27:45;;;;;;;13.15;8.05;;;18.00;1.00;;;;;;6096299;23;20026;-89
2023/07/08 04:30:40;;;;;;;11.80;7.93;;;17.80;1.00;;;;;;6117651;23;20087;-90
2023/07/08 04:37:01;;;;;;;15.30;7.80;;;17.80;1.00;;;;;;6066840;23;20030;-89
2023/07/08 04:40:10;;;;;;;;;;;;;;;;;;;;;
2023/07/08 04:55:37;;;;;;;14.85;7.82;;;18.80;1.00;;;;;;5988692;24;20172;-90
2023/07/08 04:58:53;;;;;;;14.18;7.95;;;18.90;1.00;;;;;;5974636;24;20076;-90
2023/07/08 05:02:20;;;;;;;14.93;8.15;;;18.80;1.00;;;;;;5948938;24;20020;-88
2023/07/08 05:05:08;;;;;;;13.55;7.97;;;18.80;1.00;;;;;;5991143;24;20079;-88
2023/07/08 05:07:56;;;;;;;13.90;8.32;;;18.80;1.00;;;;;;5986625;24;20028;-89
2023/07/08 05:11:01;;;;;;;13.80;7.88;;;18.80;1.00;;;;;;6068384;23;20034;-90
2023/07/08 05:13:54;;;;;;;12.05;7.60;;;19.00;1.00;;;;;;6126148;23;20100;-91
2023/07/08 05:16:47;;;;;;;14.65;8.27;;;19.10;1.00;;;;;;6200254;23;20349;-91
2023/07/08 05:19:41;;;;;;;13.13;8.02;;;19.30;1.00;;;;;;6179871;23;20116;-90
2023/07/08 05:22:41;;;;;;;12.75;7.72;;;19.50;1.00;;;;;;6181084;23;20036;-91
2023/07/08 05:25:47;;;;;;;14.65;7.60;;;19.70;1.00;;;;;;6184859;23;20029;-90
2023/07/08 05:28:35;;;;;;;16.27;7.68;;;19.90;1.00;;;;;;6185585;23;20016;-89
2023/07/08 05:31:24;;;;;;;15.02;8.45;;;20.10;1.00;;;;;;6190508;23;20055;-88
2023/07/08 05:34:28;;;;;;;10.82;7.10;;;20.40;1.00;;;;;;6197175;23;20052;-89
2023/07/08 05:37:16;;;;;;;11.88;7.13;;;20.70;1.00;;;;;;6179129;23;20025;-88
2023/07/08 05:40:04;;;;;;;12.88;8.25;;;20.70;1.00;;;;;;6201266;23;20025;-90
2023/07/08 05:42:52;;;;;;;13.93;7.97;;;20.80;1.00;;;;;;6183255;23;20024;-88
2023/07/08 05:45:39;;;;;;;11.20;7.18;;;20.80;1.00;;;;;;6197972;23;20073;-89
2023/07/08 05:48:26;;;;;;;13.57;7.95;;;20.80;1.00;;;;;;6195908;23;20031;-88
2023/07/08 05:51:16;;;;;;;11.80;7.45;;;20.90;1.00;;;;;;6179753;23;20029;-87
2023/07/08 05:54:06;;;;;;;12.63;7.88;;;21.10;1.00;;;;;;6195314;23;20029;-87
2023/07/08 05:56:53;;;;;;;13.23;7.68;;;21.20;1.00;;;;;;6192575;23;20108;-88
2023/07/08 05:59:43;;;;;;;10.57;6.90;;;21.30;1.00;;;;;;6146604;23;20033;-87
2023/07/08 06:02:30;;;;;;;12.77;7.40;;;21.30;1.00;;;;;;6189811;23;20021;-88
2023/07/08 06:05:18;;;;;;;12.85;7.15;;;21.40;1.00;;;;;;6187790;23;20029;-88
2023/07/08 06:08:09;;;;;;;12.40;7.40;;;21.40;1.00;;;;;;6167827;23;20310;-87
2023/07/08 06:11:01;;;;;;;10.75;7.15;;;21.50;1.00;;;;;;6166354;23;20339;-87
2023/07/08 06:13:49;;;;;;;14.13;7.80;;;21.50;1.00;;;;;;6186997;23;20350;-89
2023/07/08 06:16:39;;;;;;;14.63;7.07;;;21.50;1.00;;;;;;6187326;23;20025;-87
2023/07/08 06:19:28;;;;;;;9.30;6.35;;;21.40;1.00;;;;;;6187657;23;20100;-87
2023/07/08 06:22:16;;;;;;;11.25;6.43;;;21.50;1.00;;;;;;6167037;23;20273;-89
2023/07/08 06:25:25;;;;;;;9.43;6.13;;;21.50;1.00;;;;;;6171396;23;20039;-86
2023/07/08 06:28:13;;;;;;;10.05;6.00;;;21.50;1.00;;;;;;6185967;23;20025;-86
2023/07/08 06:31:00;;;;;;;12.70;6.38;;;21.50;1.00;;;;;;6166521;23;20413;-86
2023/07/08 06:33:48;;;;;;;10.23;5.93;;;21.50;1.00;;;;;;6165964;23;20033;-89
2023/07/08 06:36:38;;;;;;;10.77;6.00;;;21.40;1.00;;;;;;6187393;23;20025;-86
2023/07/08 06:39:25;;;;;;;9.80;6.15;;;21.40;1.00;;;;;;6188361;23;20025;-88
2023/07/08 06:42:13;;;;;;;9.90;6.47;;;21.40;1.00;;;;;;6189036;23;20069;-90
2023/07/08 06:45:00;;;;;;;12.68;6.20;;;21.50;1.00;;;;;;6168232;23;20035;-90
2023/07/08 06:47:47;;;;;;;9.30;5.57;;;21.80;1.00;;;;;;6168460;23;20099;-87
2023/07/08 06:50:35;;;;;;;12.43;6.28;;;22.00;1.00;;;;;;6187733;23;20293;-86
2023/07/08 06:53:22;;;;;;;10.55;5.90;;;22.10;1.00;;;;;;6165922;23;20029;-88
2023/07/08 06:56:10;;;;;;;11.25;6.10;;;22.20;1.00;;;;;;6167934;23;20032;-86
2023/07/08 06:58:57;;;;;;;13.43;6.65;;;22.20;1.00;;;;;;6185928;23;20095;-88
2023/07/08 07:01:44;;;;;;;11.10;5.93;;;22.10;1.00;;;;;;6166744;23;20032;-87
2023/07/08 07:04:32;;;;;;;10.27;5.82;;;22.10;1.00;;;;;;6170463;23;20088;-90
2023/07/08 07:07:23;;;;;;;12.00;6.38;;;22.20;1.00;;;;;;6195653;23;20060;-88
2023/07/08 07:10:10;;;;;;;10.93;6.15;;;22.50;1.00;;;;;;6169820;23;20033;-87
2023/07/08 07:12:58;;;;;;;16.08;6.63;;;22.70;1.00;;;;;;6186774;23;20056;-89
2023/07/08 07:15:47;;;;;;;11.30;5.70;;;22.90;1.00;;;;;;6163166;23;20029;-86
2023/07/08 07:18:38;;;;;;;12.60;5.93;;;23.10;1.00;;;;;;6166771;23;20136;-90
2023/07/08 07:21:27;;;;;;;11.48;6.40;;;23.20;1.00;;;;;;6186160;23;20025;-89
2023/07/08 07:24:14;;;;;;;11.45;6.40;;;23.40;1.00;;;;;;6188331;23;20487;-89
2023/07/08 07:27:05;;;;;;;8.77;5.40;;;23.30;1.00;;;;;;6165992;23;20029;-89
2023/07/08 07:29:53;;;;;;;11.85;6.18;;;23.40;1.00;;;;;;6187508;23;20076;-91
2023/07/08 07:32:42;;;;;;;9.82;5.47;;;23.50;1.00;;;;;;6187544;23;20033;-90
2023/07/08 07:35:29;;;;;;;9.63;5.80;;;23.80;1.00;;;;;;6193212;23;20025;-92
2023/07/08 07:38:21;;;;;;;9.73;6.03;;;24.00;1.00;;;;;;6189196;23;20025;-91
2023/07/08 07:41:10;;;;;;;11.95;5.68;;;24.30;1.00;;;;;;6189164;23;20021;-93
2023/07/08 07:43:58;;;;;;;12.65;5.82;;;24.50;1.00;;;;;;6190712;23;20124;-92
2023/07/08 07:47:05;;;;;;;;;;;;;;;;;;;;;
2023/07/08 07:58:57;;;;;;;8.27;5.57;;;24.50;1.00;;;;;;6187712;23;20051;-92
2023/07/08 08:06:32;;;;;;;7.95;4.85;;;24.00;1.00;;;;;;6139976;23;20021;-94
2023/07/08 08:10:03;;;;;;;6.90;4.63;;;23.90;1.00;;;;;;6171386;23;20107;-92
2023/07/08 08:13:11;;;;;;;8.80;5.13;;;24.00;1.00;;;;;;6204960;23;20413;-94
2023/07/08 08:16:23;;;;;;;8.32;5.00;;;24.30;1.00;;;;;;6168643;23;20024;-93
2023/07/08 08:19:44;;;;;;;9.43;5.30;;;24.70;1.00;;;;;;6165693;23;20024;-91
2023/07/08 08:23:08;;;;;;;;;;;;;;;;;;;;;
2023/07/08 08:30:41;;;;;;;6.65;4.30;;;27.00;1.00;;;;;;5984723;24;20028;-91
2023/07/08 08:33:31;;;;;;;10.88;4.10;;;28.40;1.00;;;;;;5987974;23;20069;-88
2023/07/08 08:36:20;;;;;;;7.47;3.60;;;29.00;1.00;;;;;;5987328;24;20381;-91
2023/07/08 08:39:12;;;;;;;10.35;3.85;;;28.30;1.00;;;;;;5986379;23;20039;-91
2023/07/08 08:41:59;;;;;;;6.70;3.53;;;28.20;1.00;;;;;;5967238;24;20028;-88
2023/07/08 08:44:46;;;;;;;7.95;3.85;;;28.50;1.00;;;;;;5965778;24;20032;-87
2023/07/08 08:47:47;;;;;;;5.28;3.30;;;29.50;1.00;;;;;;5967568;24;20038;-91
2023/07/08 08:51:03;;;;;;;7.93;3.63;;;30.10;1.00;;;;;;5967194;24;20723;-89
2023/07/08 08:53:54;;;;;;;7.40;3.70;;;29.50;1.00;;;;;;5986851;24;20047;-91
2023/07/08 08:56:44;;;;;;;;;;;27.50;1.00;;;;;;6070068;23;20486;-88
2023/07/08 08:59:50;;;;;;;4.57;3.50;;;26.90;1.00;;;;;;6074202;23;19984;-87
2023/07/08 09:03:07;;;;;;;7.57;3.50;;;26.50;1.00;;;;;;6072536;23;20105;-88
2023/07/08 09:06:00;;;;;;;7.68;3.50;;;26.20;1.00;;;;;;6138121;23;20021;-89
2023/07/08 09:08:50;;;;;;;5.57;2.63;;;26.20;1.00;;;;;;6169549;23;20028;-89
2023/07/08 09:11:55;;;;;;;3.65;2.55;;;26.40;1.00;;;;;;6190921;23;20025;-92
2023/07/08 09:14:42;;;;;;;8.95;2.80;;;27.60;1.00;;;;;;6190270;23;20025;-90
2023/07/08 09:17:34;;;;;;;5.00;2.83;;;28.40;1.00;;;;;;6176242;23;20076;-91
2023/07/08 09:20:29;;;;;;;5.88;2.10;;;28.30;1.00;;;;;;6196151;23;20024;-94
2023/07/08 09:23:35;;;;;;;4.10;2.47;;;28.80;1.00;;;;;;6174020;23;20031;-91
2023/07/08 09:26:28;;;;;;;4.95;2.40;;;29.10;1.00;;;;;;6193092;23;20025;-92
2023/07/08 09:29:15;;;;;;;6.05;2.85;;;28.90;1.00;;;;;;6169426;23;20024;-91
2023/07/08 09:32:25;;;;;;;4.30;2.60;;;28.60;99.90;;;;;;6190234;23;20459;-94
2023/07/08 09:35:41;;;;;;;4.68;2.60;;;28.80;99.90;;;;;;6170260;23;20013;-92
2023/07/08 09:38:38;;;;;;;6.88;3.00;;;29.60;1.00;;;;;;6168939;23;20021;-90
2023/07/08 09:41:36;;;;;;;8.85;3.17;;;29.50;99.90;;;;;;6189253;23;20024;-88
2023/07/08 09:44:33;;;;;;;9.23;3.72;;;28.60;1.00;;;;;;6188626;23;20025;-92
2023/07/08 09:47:30;;;;;;;7.45;3.30;;;28.30;1.00;;;;;;6186768;23;20029;-87
2023/07/08 09:50:31;;;;;;;8.75;3.95;;;28.10;1.00;;;;;;6188046;23;20036;-87
2023/07/08 09:53:19;;;;;;;5.65;3.58;;;28.00;1.00;;;;;;6165316;23;20028;-88
2023/07/08 09:56:09;;;;;;;10.60;4.05;;;28.10;1.00;;;;;;6165664;23;20316;-88
2023/07/08 09:59:00;;;;;;;6.95;3.70;;;28.50;1.00;;;;;;6187762;23;20041;-85
2023/07/08 10:01:49;;;;;;;10.32;3.55;;;28.30;1.00;;;;;;6186809;23;20021;-90
2023/07/08 10:04:37;;;;;;;5.82;3.50;;;28.60;1.00;;;;;;6187160;23;20029;-86
2023/07/08 10:07:29;;;;;;;3.42;2.80;;;28.50;1.00;;;;;;6188685;23;20025;-87
2023/07/08 10:10:24;;;;;;;4.72;2.70;;;29.30;1.00;;;;;;6191157;23;20064;-90
2023/07/08 10:13:43;;;;;;;3.95;2.58;;;29.90;99.90;;;;;;6189876;23;20040;-90
2023/07/08 10:16:33;;;;;;;3.38;2.30;;;31.10;99.90;;;;;;6195395;23;20052;-89
2023/07/08 10:19:21;;;;;;;4.50;2.50;;;31.10;99.90;;;;;;6179892;23;20021;-92
2023/07/08 10:22:39;;;;;;;6.43;2.20;;;30.60;99.90;;;;;;6176394;23;20027;-92
2023/07/08 10:25:49;;;;;;;2.90;2.17;;;30.40;99.90;;;;;;6174248;23;20323;-89
2023/07/08 10:29:02;;;;;;;5.78;2.40;;;31.30;99.90;;;;;;6176359;23;20036;-91
2023/07/08 10:32:20;;;;;;;3.70;2.50;;;32.60;99.90;;;;;;6196868;23;20053;-89
2023/07/08 10:35:30;;;;;;;4.43;2.25;;;32.00;99.90;;;;;;6174435;23;20028;-86
2023/07/08 10:38:50;;;;;;;6.18;2.88;;;32.60;99.90;;;;;;6172662;23;20048;-89
2023/07/08 10:42:01;;;;;;;3.88;2.50;;;34.00;99.90;;;;;;6193265;23;20104;-89
2023/07/08 10:45:10;;;;;;;6.18;3.42;;;33.40;99.90;;;;;;6174900;23;20104;-91
2023/07/08 10:48:16;;;;;;;7.70;2.92;;;33.90;99.90;;;;;;6197864;23;20491;-90
2023/07/08 10:51:16;;;;;;;6.32;2.80;;;35.30;99.90;;;;;;6176824;23;20029;-91
2023/07/08 10:54:30;;;;;;;6.30;2.70;;;35.80;99.90;;;;;;6174220;23;20332;-90
2023/07/08 10:57:23;;;;;;;4.55;2.85;;;35.60;99.90;;;;;;6192559;23;20025;-86
2023/07/08 11:00:38;;;;;;;7.25;2.83;;;36.40;99.90;;;;;;6174714;23;20021;-88
2023/07/08 11:03:40;;;;;;;5.15;2.78;;;36.20;99.90;;;;;;6172820;23;20400;-88
2023/07/08 11:06:45;;;;;;;4.63;2.67;;;36.00;99.90;;;;;;6198887;23;20310;-90
2023/07/08 11:09:50;;;;;;;4.72;2.65;;;35.60;99.90;;;;;;6173814;23;20123;-88
2023/07/08 11:12:50;;;;;;;3.75;2.15;;;36.10;99.90;;;;;;6172297;23;20035;-88
2023/07/08 11:16:35;;;;;;;4.35;2.03;;;36.40;99.90;;;;;;6172789;23;20021;-89
2023/07/08 11:19:38;;;;;;;5.55;2.50;;;35.40;99.90;;;;;;6171352;23;20036;-90
2023/07/08 11:22:28;;;;;;;2.13;1.73;;;33.50;99.90;;;;;;6168652;23;20021;-89
2023/07/08 11:25:21;;;;;;;3.22;2.10;;;34.20;99.90;;;;;;6191128;23;20040;-91
2023/07/08 11:28:37;;;;;;;;;;;;;;;;;;;;;
2023/07/08 11:31:30;;;;;;;4.50;2.35;;;37.20;99.90;;;;;;6171156;23;20029;-88
2023/07/08 11:34:19;;;;;;;5.15;2.20;;;37.70;99.90;;;;;;6185791;23;20056;-90
2023/07/08 11:37:08;;;;;;;4.65;2.30;;;39.10;99.90;;;;;;6167941;23;20028;-92
2023/07/08 11:40:00;;;;;;;2.50;2.03;;;39.10;99.90;;;;;;6168930;23;20025;-92
2023/07/08 11:42:53;;;;;;;4.00;2.08;;;39.70;99.90;;;;;;6193287;23;20156;-93
2023/07/08 11:45:52;;;;;;;2.75;1.75;;;39.40;99.90;;;;;;6175437;23;20103;-91
2023/07/08 11:48:47;;;;;;;3.45;1.98;;;39.80;99.90;;;;;;6197317;23;20025;-91
2023/07/08 11:51:39;;;;;;;5.72;2.03;;;38.80;99.90;;;;;;6177266;23;20030;-90
2023/07/08 11:54:31;;;;;;;3.63;2.22;;;38.10;99.90;;;;;;6190881;23;20393;-89
2023/07/08 12:01:23;;;;;;;3.97;2.40;;;36.00;99.90;;;;;;6189498;23;20028;-88
2023/07/08 12:04:24;;;;;;;3.88;1.73;;;36.50;99.90;;;;;;6187990;23;20025;-87
2023/07/08 12:07:20;;;;;;;27.58;18.08;;;37.20;99.90;;;;;;6166143;23;20080;-83
2023/07/08 12:10:18;;;;;;;6.05;4.95;;;37.60;99.90;;;;;;6164827;23;20040;-90
2023/07/08 12:13:14;;;;;;;50.58;40.22;;;38.90;99.90;;;;;;6164960;23;20039;-90
2023/07/08 12:16:04;;;;;;;3.15;2.85;;;40.30;99.90;;;;;;6166318;23;20440;-87
2023/07/08 12:18:53;;;;;;;2.97;2.05;;;41.60;99.90;;;;;;6186299;23;20413;-88
2023/07/08 12:21:43;;;;;;;4.45;1.80;;;40.80;99.90;;;;;;6187909;23;20041;-88
2023/07/08 12:24:31;;;;;;;5.10;1.73;;;38.80;99.90;;;;;;6187028;23;20104;-88
2023/07/08 12:27:18;;;;;;;5.07;2.08;;;37.20;99.90;;;;;;6186645;23;20025;-86
2023/07/08 12:30:08;;;;;;;2.97;1.65;;;35.50;99.90;;;;;;6190417;23;20025;-88
2023/07/08 12:32:59;;;;;;;2.42;1.63;;;35.00;99.90;;;;;;6191188;23;20040;-89
2023/07/08 12:35:49;;;;;;;2.33;1.55;;;35.90;99.90;;;;;;6169622;23;20029;-87
2023/07/08 12:38:46;;;;;;;2.45;1.73;;;36.90;99.90;;;;;;6202624;23;20029;-88
2023/07/08 12:41:36;;;;;;;2.75;1.85;;;35.80;99.90;;;;;;6201432;23;20045;-89
2023/07/08 12:44:26;;;;;;;3.15;1.63;;;34.70;99.90;;;;;;6192615;23;20079;-88
2023/07/08 12:47:13;;;;;;;3.10;1.60;;;35.10;99.90;;;;;;6171612;23;20044;-89
2023/07/08 12:50:00;;;;;;;3.72;2.05;;;36.20;99.90;;;;;;6173495;23;20052;-89
2023/07/08 12:52:48;;;;;;;4.30;1.90;;;36.30;99.90;;;;;;6200268;23;20039;-89
2023/07/08 12:55:38;;;;;;;2.92;1.60;;;35.60;99.90;;;;;;6202991;23;20052;-86
2023/07/08 12:58:34;;;;;;;3.83;2.15;;;36.30;99.90;;;;;;6181876;23;20064;-88
2023/07/08 13:01:25;;;;;;;2.67;1.75;;;36.70;99.90;;;;;;6203459;23;20052;-86
2023/07/08 13:04:13;;;;;;;;;;;36.60;99.90;;;;;;6196211;23;20028;-87
2023/07/08 13:07:02;;;;;;;4.25;2.10;;;37.30;99.90;;;;;;6185326;23;19911;-87
2023/07/08 13:09:51;;;;;;;3.78;2.17;;;37.90;99.90;;;;;;6207091;23;20060;-89
2023/07/08 13:12:40;;;;;;;4.43;2.05;;;38.40;99.90;;;;;;6203593;23;20025;-88
2023/07/08 13:15:36;;;;;;;2.95;1.90;;;39.60;99.90;;;;;;6207826;23;20009;-89
2023/07/08 13:18:37;;;;;;;5.55;2.03;;;37.70;99.90;;;;;;6202807;23;20029;-89
2023/07/08 13:21:27;;;;;;;3.72;1.73;;;36.40;99.90;;;;;;6182741;23;20025;-88
2023/07/08 13:24:17;;;;;;;3.88;2.20;;;36.30;99.90;;;;;;6181743;23;20035;-88
2023/07/08 13:27:23;;;;;;;4.43;1.65;;;37.40;99.90;;;;;;6183632;23;20033;-87
2023/07/08 13:30:24;;;;;;;2.65;1.83;;;38.90;99.90;;;;;;6164912;23;20036;-89
2023/07/08 13:33:16;;;;;;;6.57;1.98;;;39.70;99.90;;;;;;6204745;23;20321;-88
2023/07/08 13:38:34;;;;;;;4.00;1.60;;;40.50;99.90;;;;;;6214194;23;20088;-88
2023/07/08 13:41:23;;;;;;;2.90;1.83;;;40.10;99.90;;;;;;6189335;23;20021;-88
2023/07/08 13:44:11;;;;;;;4.90;2.03;;;40.10;99.90;;;;;;6211658;23;20043;-89
2023/07/08 13:47:00;;;;;;;2.95;2.00;;;39.50;99.90;;;;;;6206855;23;20053;-90
2023/07/08 13:50:00;;;;;;;3.92;1.90;;;39.60;99.90;;;;;;6203231;23;20024;-91
2023/07/08 13:52:55;;;;;;;3.72;1.90;;;39.60;99.90;;;;;;6198230;23;20029;-89
2023/07/08 13:55:42;;;;;;;3.47;1.80;;;38.80;99.90;;;;;;6197998;23;20269;-89
2023/07/08 13:58:41;;;;;;;2.38;1.40;;;38.90;99.90;;;;;;6196399;23;20404;-93
2023/07/08 14:01:30;;;;;;;4.03;1.73;;;39.20;99.90;;;;;;6177843;23;20031;-87
2023/07/08 14:04:37;;;;;;;3.08;1.60;;;39.60;99.90;;;;;;6175087;23;20383;-90
2023/07/08 14:07:38;;;;;;;2.67;1.83;;;40.20;99.90;;;;;;6201437;23;20071;-93
2023/07/08 14:10:31;;;;;;;4.03;2.10;;;40.20;99.90;;;;;;6199419;23;20052;-90
2023/07/08 14:13:45;;;;;;;3.58;1.80;;;40.60;99.90;;;;;;6180202;23;20028;-88
2023/07/08 14:16:37;;;;;;;2.53;1.70;;;39.10;99.90;;;;;;6176342;23;20028;-89
2023/07/08 14:19:30;;;;;;;3.60;2.10;;;38.10;99.90;;;;;;6199157;23;20021;-89
2023/07/08 14:22:25;;;;;;;4.40;2.33;;;37.40;99.90;;;;;;6195434;23;20021;-91
2023/07/08 14:25:15;;;;;;;3.35;1.88;;;35.60;99.90;;;;;;6196468;23;20103;-91
2023/07/08 14:28:06;;;;;;;3.65;1.83;;;33.80;99.90;;;;;;6180538;23;20021;-90
2023/07/08 14:30:54;;;;;;;4.13;1.83;;;32.70;99.90;;;;;;6184675;23;20028;-91
2023/07/08 14:33:44;;;;;;;4.90;3.08;;;31.90;99.90;;;;;;6184109;23;20025;-90
2023/07/08 14:36:32;;;;;;;4.43;1.75;;;31.20;99.90;;;;;;6183277;23;20056;-89
2023/07/08 14:39:20;;;;;;;3.42;2.20;;;31.10;99.90;;;;;;6189915;23;20017;-90
2023/07/08 14:42:17;;;;;;;4.05;1.90;;;31.20;99.90;;;;;;6212528;23;20040;-87
2023/07/08 14:45:07;;;;;;;4.28;2.00;;;32.00;99.90;;;;;;6201215;23;20072;-91
2023/07/08 14:47:55;;;;;;;4.53;2.10;;;31.90;99.90;;;;;;6209707;23;20029;-91
2023/07/08 14:50:43;;;;;;;2.55;1.70;;;32.10;99.90;;;;;;6187337;23;20421;-91
2023/07/08 14:53:30;;;;;;;3.97;1.80;;;33.30;99.90;;;;;;6175784;23;20367;-91
2023/07/08 14:56:20;;;;;;;2.80;2.08;;;34.20;99.90;;;;;;6170884;23;20037;-90
2023/07/08 14:59:32;;;;;;;3.42;1.80;;;34.20;99.90;;;;;;6166064;23;20332;-89
2023/07/08 15:02:24;;;;;;;3.80;2.10;;;34.80;99.90;;;;;;6186221;23;20387;-91
2023/07/08 15:05:22;;;;;;;3.22;2.13;;;35.70;99.90;;;;;;6187478;23;20108;-88
2023/07/08 15:08:11;;;;;;;8.07;2.20;;;35.90;99.90;;;;;;6188250;23;20103;-90
2023/07/08 15:11:01;;;;;;;2.67;2.00;;;36.40;99.90;;;;;;6168328;23;20028;-93
2023/07/08 15:13:50;;;;;;;2.65;2.10;;;37.10;99.90;;;;;;6169745;23;20375;-89
2023/07/08 15:16:37;;;;;;;3.55;2.15;;;37.40;99.90;;;;;;6190238;23;20084;-89
2023/07/08 15:19:25;;;;;;;4.32;2.40;;;37.60;99.90;;;;;;6188610;23;20029;-89
2023/07/08 15:22:13;;;;;;;2.70;1.75;;;37.40;99.90;;;;;;6187446;23;20025;-91
2023/07/08 15:25:01;;;;;;;1.90;1.63;;;37.70;99.90;;;;;;6170045;23;20063;-91
2023/07/08 15:27:52;;;;;;;5.90;2.30;;;37.50;99.90;;;;;;6167739;23;20037;-91
2023/07/08 15:31:03;;;;;;;4.40;2.33;;;37.00;99.90;;;;;;6168837;23;20033;-92
2023/07/08 15:34:18;;;;;;;3.75;1.70;;;36.40;99.90;;;;;;6189726;23;20032;-91
2023/07/08 15:37:08;;;;;;;3.97;1.55;;;36.40;99.90;;;;;;6187300;23;20040;-91
2023/07/08 15:39:59;;;;;;;2.60;1.83;;;37.30;99.90;;;;;;6196547;23;20025;-89
2023/07/08 15:42:53;;;;;;;7.20;2.63;;;35.40;99.90;;;;;;6195655;23;20045;-91
2023/07/08 15:45:51;;;;;;;5.15;2.20;;;33.60;99.90;;;;;;6175758;23;20021;-91
2023/07/08 15:48:39;;;;;;;4.72;2.38;;;32.50;99.90;;;;;;6195703;23;20038;-90
2023/07/08 15:51:26;;;;;;;3.22;1.60;;;33.20;99.90;;;;;;6182701;23;20048;-89
2023/07/08 15:54:18;;;;;;;3.47;1.88;;;33.10;99.90;;;;;;6206216;23;20021;-92
2023/07/08 15:57:12;;;;;;;2.70;1.80;;;33.80;99.90;;;;;;6203114;23;20029;-89
2023/07/08 16:00:02;;;;;;;3.25;2.00;;;34.00;99.90;;;;;;6208104;23;20073;-89
2023/07/08 16:02:53;;;;;;;4.65;1.77;;;33.40;99.90;;;;;;6183896;23;20032;-90
2023/07/08 16:05:41;;;;;;;3.13;1.70;;;32.70;99.90;;;;;;6201007;23;20036;-89
2023/07/08 16:12:43;;;;;;;5.72;1.80;;;32.20;99.90;;;;;;6151910;23;20021;-90
2023/07/08 16:16:29;;;;;;;5.20;2.13;;;31.60;99.90;;;;;;6209250;23;20029;-90
2023/07/08 16:23:31;;;;;;;4.55;2.25;;;30.80;99.90;;;;;;6133442;23;20019;-91
2023/07/08 16:26:33;;;;;;;3.47;2.13;;;30.40;99.90;;;;;;6173096;23;20029;-90
2023/07/08 16:33:24;;;;;;;3.35;2.03;;;30.20;99.90;;;;;;6177834;23;20487;-90
2023/07/08 16:40:28;;;;;;;2.70;2.08;;;30.00;99.90;;;;;;6176060;23;20033;-90
2023/07/08 16:48:20;;;;;;;3.25;2.00;;;29.80;99.90;;;;;;6188404;23;20017;-91
2023/07/08 17:04:00;;;;;;;3.67;1.98;;;29.90;99.90;;;;;;6068288;23;20127;-90
2023/07/08 17:06:51;;;;;;;2.95;2.28;;;29.90;99.90;;;;;;6091004;23;20038;-91
2023/07/08 17:09:41;;;;;;;3.83;2.28;;;29.80;99.90;;;;;;6078826;23;20030;-90
2023/07/08 17:12:44;;;;;;;4.60;2.60;;;29.60;99.90;;;;;;6076492;23;20026;-90
2023/07/08 17:24:02;;;;;;;3.47;2.08;;;29.60;99.90;;;;;;5929903;24;20032;-90
2023/07/08 17:27:59;;;;;;;;;;;;;;;;;;;;;
2023/07/08 20:04:36;;;;;;;4.07;2.78;;;24.60;99.90;;;;;;6156890;23;20057;-91